Ty Lotus — DSNU7 — position and weather

sailwx.info

Track history (hours):
 
Tides and Currents Weather Stations Pressure Air Temp Water Temp Dewpoint Dewpoint Depression Visibility Wind Speed Wind Dir Waves Ship Positions

Ty Lotus

Last reported at 2015-Jul-25 11:33 UTC. Time now 2015-Jul-28 19:43 UTC.
Position N 34°37' E 135°02'.

Length 82 m; draft 6.2 m.

Type: Cargo ship. MMSI: 440324000.

Date/timePositionNaut miles runAvg speedWind from/ knotsBaromVisibWave heightAir tempDewpointWater temp
2015-Jul-25 11:33N 34°37' E 135°02'8 8.3
2015-Jul-25 10:33N 34°37' E 135°12'4 3.6
2015-Jul-25 09:34N 34°40' E 135°13'0 0.0
2015-Jul-25 08:19N 34°40' E 135°13'0 0.0
2015-Jul-25 07:31N 34°40' E 135°13'0 0.0
2015-Jul-25 06:19N 34°40' E 135°13'0 0.0
2015-Jul-25 05:31N 34°40' E 135°13'0 0.0
2015-Jul-25 04:31N 34°40' E 135°13'0 0.0
2015-Jul-25 03:16N 34°40' E 135°13'0 0.0
2015-Jul-25 02:22N 34°40' E 135°13'0 0.0
2015-Jul-25 01:30N 34°40' E 135°13'0 0.0
2015-Jul-25 00:30N 34°40' E 135°13'0 0.0
2015-Jul-24 23:22N 34°40' E 135°13'0 0.0
2015-Jul-24 22:22N 34°40' E 135°13'3 3.4
2015-Jul-24 21:33N 34°39' E 135°16'2 1.7
2015-Jul-24 20:28N 34°37' E 135°14'0 0.0
2015-Jul-24 19:28N 34°37' E 135°14'0 0.0
2015-Jul-24 18:28N 34°37' E 135°14'0 0.0
2015-Jul-24 17:28N 34°37' E 135°14'0 0.0
2015-Jul-24 16:28N 34°37' E 135°14'0 0.1
2015-Jul-24 15:16N 34°37' E 135°14'0 0.1
2015-Jul-24 14:28N 34°37' E 135°14'0 0.0
2015-Jul-24 13:22N 34°37' E 135°14'0 0.0
2015-Jul-24 12:28N 34°37' E 135°14'0 0.0
2015-Jul-24 11:28N 34°37' E 135°14'0 0.0
2015-Jul-24 10:28N 34°37' E 135°14'0 0.0
2015-Jul-24 09:28N 34°37' E 135°14'0 0.0
2015-Jul-24 08:28N 34°37' E 135°14'0 0.0
2015-Jul-24 07:32N 34°37' E 135°14'0 0.0
2015-Jul-24 06:32N 34°37' E 135°14'0 0.0
2015-Jul-24 05:22N 34°37' E 135°14'0 0.1
2015-Jul-24 04:28N 34°37' E 135°14'0 0.0
2015-Jul-24 03:10N 34°37' E 135°14'0 0.1
2015-Jul-24 02:28N 34°37' E 135°14'0 0.2
2015-Jul-24 01:33N 34°37' E 135°14'9 8.6
2015-Jul-24 00:33N 34°29' E 135°09'10 9.3
2015-Jul-23 23:30N 34°21' E 135°03'7 7.9
2015-Jul-23 22:33N 34°14' E 134°60'10 9.7
2015-Jul-23 21:32N 34°04' E 135°00'231 7.0
2015-Jul-22 12:33N 35°04' E 139°32'9 8.9
2015-Jul-22 11:33N 35°07' E 139°42'8 8.1
2015-Jul-22 10:33N 35°14' E 139°46'9 8.6
2015-Jul-22 09:33N 35°22' E 139°42'5 4.9
2015-Jul-22 08:30N 35°27' E 139°41'0 0.0
2015-Jul-22 07:33N 35°27' E 139°41'0 0.0
2015-Jul-22 06:29N 35°27' E 139°41'0 0.0
2015-Jul-22 05:32N 35°27' E 139°41'0 0.0
2015-Jul-22 04:32N 35°27' E 139°41'0 0.0
2015-Jul-22 03:32N 35°27' E 139°41'0 0.0
2015-Jul-22 02:31N 35°27' E 139°41'0 0.0
2015-Jul-22 01:33N 35°27' E 139°41'0 0.0
2015-Jul-22 00:33N 35°27' E 139°41'0 0.0
2015-Jul-21 23:33N 35°27' E 139°41'0 0.0
2015-Jul-21 22:33N 35°27' E 139°41'0 0.0
2015-Jul-21 21:26N 35°27' E 139°41'0 0.0
2015-Jul-21 20:26N 35°27' E 139°41'0 0.0
2015-Jul-21 19:33N 35°27' E 139°41'0 0.0
2015-Jul-21 18:32N 35°27' E 139°41'0 0.0
2015-Jul-21 17:32N 35°27' E 139°41'0 0.0
2015-Jul-21 16:33N 35°27' E 139°41'0 0.0
2015-Jul-21 15:33N 35°27' E 139°41'0 0.0
2015-Jul-21 14:32N 35°27' E 139°41'0 0.0
2015-Jul-21 13:32N 35°27' E 139°41'0 0.0
2015-Jul-21 12:32N 35°27' E 139°41'0 0.0
2015-Jul-21 11:29N 35°27' E 139°41'1 0.7
2015-Jul-21 10:34N 35°28' E 139°42'16 0.4
2015-Jul-19 12:31N 35°36' E 139°60'0 0.0
2015-Jul-19 11:33N 35°36' E 139°60'6 6.5
2015-Jul-19 10:33N 35°31' E 139°55'1010.3
2015-Jul-19 09:33N 35°23' E 139°46'9 9.3
2015-Jul-19 08:33N 35°14' E 139°47'1010.3
2015-Jul-19 07:33N 35°04' E 139°43'1411.6
2015-Jul-19 06:20N 34°56' E 139°29'228 8.2
2015-Jul-18 02:28N 34°08' E 134°59'9 9.7
2015-Jul-18 01:33N 34°17' E 134°59'8 8.5
2015-Jul-18 00:33N 34°23' E 135°06'3 1.2
2015-Jul-17 22:05N 34°23' E 135°10'0 0.1
2015-Jul-17 21:29N 34°23' E 135°10'0 0.0
2015-Jul-17 20:23N 34°23' E 135°10'0 0.0
2015-Jul-17 19:23N 34°23' E 135°10'0 0.0
2015-Jul-17 18:29N 34°23' E 135°10'0 0.1
2015-Jul-17 17:29N 34°23' E 135°10'0 0.0
2015-Jul-17 07:29N 34°23' E 135°10'0 0.0
2015-Jul-17 03:29N 34°23' E 135°10'0 0.0
2015-Jul-17 02:29N 34°23' E 135°10'0 0.0
2015-Jul-17 01:29N 34°23' E 135°10'0 0.0
2015-Jul-16 23:05N 34°23' E 135°10'0 0.0
2015-Jul-16 22:32N 34°23' E 135°10'0 0.0
2015-Jul-16 21:26N 34°23' E 135°09'0 0.0
2015-Jul-16 20:17N 34°23' E 135°09'0 0.0
2015-Jul-16 19:23N 34°23' E 135°09'0 0.0
2015-Jul-16 18:32N 34°23' E 135°09'0 0.0
2015-Jul-16 17:29N 34°23' E 135°09'0 0.0
2015-Jul-16 16:17N 34°23' E 135°09'0 0.0
2015-Jul-16 15:29N 34°23' E 135°09'0 0.0
2015-Jul-16 14:11N 34°23' E 135°09'0 0.0
2015-Jul-16 13:14N 34°23' E 135°09'0 0.0
2015-Jul-16 12:32N 34°23' E 135°09'0 0.0
2015-Jul-16 11:20N 34°23' E 135°09'0 0.0
2015-Jul-16 10:23N 34°23' E 135°09'0 0.0
2015-Jul-16 09:17N 34°23' E 135°09'0 0.0
2015-Jul-16 08:20N 34°23' E 135°09'0 0.0
2015-Jul-16 07:32N 34°23' E 135°09'0 0.0
2015-Jul-16 06:23N 34°23' E 135°09'0 0.0
2015-Jul-16 05:29N 34°23' E 135°09'0 0.0
2015-Jul-16 04:19N 34°23' E 135°09'0 0.0
2015-Jul-16 03:33N 34°23' E 135°09'0 0.0
2015-Jul-16 02:30N 34°23' E 135°09'0 0.0
2015-Jul-15 18:25N 34°23' E 135°10'0 0.1
2015-Jul-15 17:31N 34°23' E 135°10'0 0.0
2015-Jul-15 16:27N 34°23' E 135°10'0 0.0
2015-Jul-15 15:33N 34°23' E 135°10'0 0.0
2015-Jul-15 14:33N 34°23' E 135°10'0 0.0
2015-Jul-15 13:30N 34°23' E 135°10'0 0.0
2015-Jul-15 12:30N 34°23' E 135°10'  
Track history (hours):
 
Tides and Currents Weather Stations Pressure Air Temp Water Temp Dewpoint Dewpoint Depression Visibility Wind Speed Wind Dir Waves Ship Positions

Ty Lotus

Last reported at 2015-Jul-25 11:33 UTC. Time now 2015-Jul-28 19:43 UTC.
Position N 34°37' E 135°02'.

Length 82 m; draft 6.2 m.

Type: Cargo ship. MMSI: 440324000.

Date/timePositionNaut miles runAvg speedWind from/ knotsBaromVisibWave heightAir tempDewpointWater temp
2015-Jul-25 11:33N 34°37' E 135°02'8 8.3
2015-Jul-25 10:33N 34°37' E 135°12'4 3.6
2015-Jul-25 09:34N 34°40' E 135°13'0 0.0
2015-Jul-25 08:19N 34°40' E 135°13'0 0.0
2015-Jul-25 07:31N 34°40' E 135°13'0 0.0
2015-Jul-25 06:19N 34°40' E 135°13'0 0.0
2015-Jul-25 05:31N 34°40' E 135°13'0 0.0
2015-Jul-25 04:31N 34°40' E 135°13'0 0.0
2015-Jul-25 03:16N 34°40' E 135°13'0 0.0
2015-Jul-25 02:22N 34°40' E 135°13'0 0.0
2015-Jul-25 01:30N 34°40' E 135°13'0 0.0
2015-Jul-25 00:30N 34°40' E 135°13'0 0.0
2015-Jul-24 23:22N 34°40' E 135°13'0 0.0
2015-Jul-24 22:22N 34°40' E 135°13'3 3.4
2015-Jul-24 21:33N 34°39' E 135°16'2 1.7
2015-Jul-24 20:28N 34°37' E 135°14'0 0.0
2015-Jul-24 19:28N 34°37' E 135°14'0 0.0
2015-Jul-24 18:28N 34°37' E 135°14'0 0.0
2015-Jul-24 17:28N 34°37' E 135°14'0 0.0
2015-Jul-24 16:28N 34°37' E 135°14'0 0.1
2015-Jul-24 15:16N 34°37' E 135°14'0 0.1
2015-Jul-24 14:28N 34°37' E 135°14'0 0.0
2015-Jul-24 13:22N 34°37' E 135°14'0 0.0
2015-Jul-24 12:28N 34°37' E 135°14'0 0.0
2015-Jul-24 11:28N 34°37' E 135°14'0 0.0
2015-Jul-24 10:28N 34°37' E 135°14'0 0.0
2015-Jul-24 09:28N 34°37' E 135°14'0 0.0
2015-Jul-24 08:28N 34°37' E 135°14'0 0.0
2015-Jul-24 07:32N 34°37' E 135°14'0 0.0
2015-Jul-24 06:32N 34°37' E 135°14'0 0.0
2015-Jul-24 05:22N 34°37' E 135°14'0 0.1
2015-Jul-24 04:28N 34°37' E 135°14'0 0.0
2015-Jul-24 03:10N 34°37' E 135°14'0 0.1
2015-Jul-24 02:28N 34°37' E 135°14'0 0.2
2015-Jul-24 01:33N 34°37' E 135°14'9 8.6
2015-Jul-24 00:33N 34°29' E 135°09'10 9.3
2015-Jul-23 23:30N 34°21' E 135°03'7 7.9
2015-Jul-23 22:33N 34°14' E 134°60'10 9.7
2015-Jul-23 21:32N 34°04' E 135°00'231 7.0
2015-Jul-22 12:33N 35°04' E 139°32'9 8.9
2015-Jul-22 11:33N 35°07' E 139°42'8 8.1
2015-Jul-22 10:33N 35°14' E 139°46'9 8.6
2015-Jul-22 09:33N 35°22' E 139°42'5 4.9
2015-Jul-22 08:30N 35°27' E 139°41'0 0.0
2015-Jul-22 07:33N 35°27' E 139°41'0 0.0
2015-Jul-22 06:29N 35°27' E 139°41'0 0.0
2015-Jul-22 05:32N 35°27' E 139°41'0 0.0
2015-Jul-22 04:32N 35°27' E 139°41'0 0.0
2015-Jul-22 03:32N 35°27' E 139°41'0 0.0
2015-Jul-22 02:31N 35°27' E 139°41'0 0.0
2015-Jul-22 01:33N 35°27' E 139°41'0 0.0
2015-Jul-22 00:33N 35°27' E 139°41'0 0.0
2015-Jul-21 23:33N 35°27' E 139°41'0 0.0
2015-Jul-21 22:33N 35°27' E 139°41'0 0.0
2015-Jul-21 21:26N 35°27' E 139°41'0 0.0
2015-Jul-21 20:26N 35°27' E 139°41'0 0.0
2015-Jul-21 19:33N 35°27' E 139°41'0 0.0
2015-Jul-21 18:32N 35°27' E 139°41'0 0.0
2015-Jul-21 17:32N 35°27' E 139°41'0 0.0
2015-Jul-21 16:33N 35°27' E 139°41'0 0.0
2015-Jul-21 15:33N 35°27' E 139°41'0 0.0
2015-Jul-21 14:32N 35°27' E 139°41'0 0.0
2015-Jul-21 13:32N 35°27' E 139°41'0 0.0
2015-Jul-21 12:32N 35°27' E 139°41'0 0.0
2015-Jul-21 11:29N 35°27' E 139°41'1 0.7
2015-Jul-21 10:34N 35°28' E 139°42'16 0.4
2015-Jul-19 12:31N 35°36' E 139°60'0 0.0
2015-Jul-19 11:33N 35°36' E 139°60'6 6.5
2015-Jul-19 10:33N 35°31' E 139°55'1010.3
2015-Jul-19 09:33N 35°23' E 139°46'9 9.3
2015-Jul-19 08:33N 35°14' E 139°47'1010.3
2015-Jul-19 07:33N 35°04' E 139°43'1411.6
2015-Jul-19 06:20N 34°56' E 139°29'228 8.2
2015-Jul-18 02:28N 34°08' E 134°59'9 9.7
2015-Jul-18 01:33N 34°17' E 134°59'8 8.5
2015-Jul-18 00:33N 34°23' E 135°06'3 1.2
2015-Jul-17 22:05N 34°23' E 135°10'0 0.1
2015-Jul-17 21:29N 34°23' E 135°10'0 0.0
2015-Jul-17 20:23N 34°23' E 135°10'0 0.0
2015-Jul-17 19:23N 34°23' E 135°10'0 0.0
2015-Jul-17 18:29N 34°23' E 135°10'0 0.1
2015-Jul-17 17:29N 34°23' E 135°10'0 0.0
2015-Jul-17 07:29N 34°23' E 135°10'0 0.0
2015-Jul-17 03:29N 34°23' E 135°10'0 0.0
2015-Jul-17 02:29N 34°23' E 135°10'0 0.0
2015-Jul-17 01:29N 34°23' E 135°10'0 0.0
2015-Jul-16 23:05N 34°23' E 135°10'0 0.0
2015-Jul-16 22:32N 34°23' E 135°10'0 0.0
2015-Jul-16 21:26N 34°23' E 135°09'0 0.0
2015-Jul-16 20:17N 34°23' E 135°09'0 0.0
2015-Jul-16 19:23N 34°23' E 135°09'0 0.0
2015-Jul-16 18:32N 34°23' E 135°09'0 0.0
2015-Jul-16 17:29N 34°23' E 135°09'0 0.0
2015-Jul-16 16:17N 34°23' E 135°09'0 0.0
2015-Jul-16 15:29N 34°23' E 135°09'0 0.0
2015-Jul-16 14:11N 34°23' E 135°09'0 0.0
2015-Jul-16 13:14N 34°23' E 135°09'0 0.0
2015-Jul-16 12:32N 34°23' E 135°09'0 0.0
2015-Jul-16 11:20N 34°23' E 135°09'0 0.0
2015-Jul-16 10:23N 34°23' E 135°09'0 0.0
2015-Jul-16 09:17N 34°23' E 135°09'0 0.0
2015-Jul-16 08:20N 34°23' E 135°09'0 0.0
2015-Jul-16 07:32N 34°23' E 135°09'0 0.0
2015-Jul-16 06:23N 34°23' E 135°09'0 0.0
2015-Jul-16 05:29N 34°23' E 135°09'0 0.0
2015-Jul-16 04:19N 34°23' E 135°09'0 0.0
2015-Jul-16 03:33N 34°23' E 135°09'0 0.0
2015-Jul-16 02:30N 34°23' E 135°09'0 0.0
2015-Jul-15 18:25N 34°23' E 135°10'0 0.1
2015-Jul-15 17:31N 34°23' E 135°10'0 0.0
2015-Jul-15 16:27N 34°23' E 135°10'0 0.0
2015-Jul-15 15:33N 34°23' E 135°10'0 0.0
2015-Jul-15 14:33N 34°23' E 135°10'0 0.0
2015-Jul-15 13:30N 34°23' E 135°10'0 0.0
2015-Jul-15 12:30N 34°23' E 135°10'  

Dump ship's entire track history